Have a Safe July 4th! 

Flight Track Log - Related Links

Times and Time Zones

All times are in EDT time to prevent confusion due to time zone crossing. See the FLG3785 flight status page for this flight to view local times or setup timezone preferences in your user account.

Time Position Orientation Groundspeed Altitude Reporting Facility
EDT Latitude Longitude Course Direction KTS MPH feet Rate Location/Type
Tue 07:48:00 PM 40.9356 -85.1964 37° Northeast 165 190 2,600  Level Chicago Center
Tue 07:49:02 PM 40.9425 -85.1128 84° East 293 337 3,900 1,887 Climbing Chicago Center
Tue 07:50:04 PM 41.0167 -85.0781 19° North 291 335 6,500 2,661 Climbing Chicago Center
Tue 07:51:06 PM 41.1078 -85.0389 18° North 288 331 9,400 2,177 Climbing Chicago Center
Tue 07:52:08 PM 41.1800 -84.9703 36° Northeast 317 365 11,000 1,355 Climbing Chicago Center
Tue 07:53:00 PM 41.3375 -84.7793 37° Northeast  Level FlightAware Approximate
Tue 07:53:10 PM 41.2561 -84.8886 39° Northeast 347 399 12,200  Level Chicago Center
Tue 07:54:12 PM 41.3378 -84.8011 39° Northeast 373 429 13,000 387 Climbing Chicago Center
Tue 07:55:14 PM 41.4147 -84.7053 43° Northeast 381 438 13,000 -290 Level Chicago Center
Tue 07:56:16 PM 41.4967 -84.5747 50° Northeast 386 444 12,400 -488 Descending Chicago Center
Tue 07:57:17 PM 41.5636 -84.4644 51° Northeast 385 443 12,000 -195 Descending Chicago Center
Tue 07:58:19 PM 41.6300 -84.3569 50° Northeast 380 437 12,000  Level Chicago Center
Tue 07:59:00 PM 41.6772 -84.2811 50° Northeast 379 436 12,000  Level Cleveland Center
Tue 07:59:48 PM 41.7322 -84.1922 50° Northeast 380 437 12,000  Level Cleveland Center
Tue 08:00:48 PM 41.7981 -84.0817 51° Northeast 380 437 12,000  Level Cleveland Center
Tue 08:01:48 PM 41.8639 -83.9739 51° Northeast 375 432 12,000  Level Cleveland Center
Tue 08:02:48 PM 41.9275 -83.8628 52° Northeast 375 432 12,000  Level Cleveland Center
Tue 08:03:48 PM 41.9956 -83.7489 51° Northeast 381 438 12,000  Level Cleveland Center
Tue 08:04:48 PM 42.0711 -83.6547 43° Northeast 376 433 12,000  Level Cleveland Center
Tue 08:05:48 PM 42.1436 -83.5881 34° Northeast 364 419 12,000 -200 Level Cleveland Center
Tue 08:06:48 PM 42.2203 -83.5300 29° Northeast 309 356 11,600 -800 Descending Cleveland Center
Tue 08:07:18 PM 42.2561 -83.5092 23° Northeast 258 297 10,800 -1,500 Descending Cleveland Center
Tue 08:07:48 PM 42.2819 -83.4853 34° Northeast 258 297 10,100 -1,600 Descending Cleveland Center
Tue 08:08:48 PM 42.3372 -83.4400 31° Northeast 252 290 8,400 -2,020 Descending Cleveland Center
Tue 08:09:26 PM 42.3881 -83.4028 28° Northeast 261 300 6,800 -2,182 Descending Cleveland Center
Tue 08:10:27 PM 42.4111 -83.3167 70° East 288 331 4,800 -1,574 Descending Cleveland Center
Tue 08:11:28 PM 42.3472 -83.2858 160° South 233 268 3,600 -1,091 Descending Cleveland Center
Tue 08:12:28 PM 42.2964 -83.3175 205° Southwest 195 224 2,600 -1,043 Descending Cleveland Center
Tue 08:13:23 PM 42.2603 -83.3439 208° Southwest 144 166 1,600 -1,091 Descending Cleveland Center

Login

Don't have an account? Register now (free) for customized features, flight alerts, and more!